sensor_id;sensor_type;location;lat;lon;timestamp;pressure;altitude;pressure_sealevel;temperature;humidity
74181;BME280;62544;50.826;14.354;2023-03-01T00:02:47;100496.04;;;-5.78;84.75
74181;BME280;62544;50.826;14.354;2023-03-01T00:07:03;100497.39;;;-5.80;84.61
74181;BME280;62544;50.826;14.354;2023-03-01T00:11:23;100498.86;;;-5.82;84.34
74181;BME280;62544;50.826;14.354;2023-03-01T00:15:37;100499.49;;;-5.86;84.21
74181;BME280;62544;50.826;14.354;2023-03-01T00:19:51;100501.37;;;-5.89;84.06
74181;BME280;62544;50.826;14.354;2023-03-01T00:24:07;100500.42;;;-5.92;83.78
74181;BME280;62544;50.826;14.354;2023-03-01T00:28:23;100499.56;;;-5.96;83.91
74181;BME280;62544;50.826;14.354;2023-03-01T00:32:39;100497.97;;;-6.00;83.94
74181;BME280;62544;50.826;14.354;2023-03-01T00:36:55;100496.83;;;-6.04;84.91
74181;BME280;62544;50.826;14.354;2023-03-01T00:41:12;100495.72;;;-6.13;87.20
74181;BME280;62544;50.826;14.354;2023-03-01T00:45:27;100494.39;;;-6.14;86.34
74181;BME280;62544;50.826;14.354;2023-03-01T00:49:43;100494.43;;;-6.13;84.99
74181;BME280;62544;50.826;14.354;2023-03-01T00:54:00;100494.55;;;-6.12;85.94
74181;BME280;62544;50.826;14.354;2023-03-01T00:58:15;100493.13;;;-6.13;84.42
74181;BME280;62544;50.826;14.354;2023-03-01T01:02:34;100491.68;;;-6.15;84.20
74181;BME280;62544;50.826;14.354;2023-03-01T01:06:47;100490.70;;;-6.19;83.70
74181;BME280;62544;50.826;14.354;2023-03-01T01:11:03;100490.31;;;-6.24;83.78
74181;BME280;62544;50.826;14.354;2023-03-01T01:15:19;100489.14;;;-6.28;83.70
74181;BME280;62544;50.826;14.354;2023-03-01T01:19:35;100487.03;;;-6.33;83.43
74181;BME280;62544;50.826;14.354;2023-03-01T01:23:51;100483.54;;;-6.39;83.43
74181;BME280;62544;50.826;14.354;2023-03-01T01:28:07;100480.27;;;-6.43;83.07
74181;BME280;62544;50.826;14.354;2023-03-01T01:32:23;100476.34;;;-6.49;83.28
74181;BME280;62544;50.826;14.354;2023-03-01T01:36:39;100473.52;;;-6.54;82.82
74181;BME280;62544;50.826;14.354;2023-03-01T01:40:55;100470.70;;;-6.59;82.67
74181;BME280;62544;50.826;14.354;2023-03-01T01:45:33;100466.11;;;-6.64;82.99
74181;BME280;62544;50.826;14.354;2023-03-01T01:53:43;100459.84;;;-6.72;82.42
74181;BME280;62544;50.826;14.354;2023-03-01T01:58:00;100454.86;;;-6.78;83.79
74181;BME280;62544;50.826;14.354;2023-03-01T02:02:15;100449.46;;;-6.80;83.08
74181;BME280;62544;50.826;14.354;2023-03-01T02:06:32;100445.15;;;-6.82;82.86
74181;BME280;62544;50.826;14.354;2023-03-01T02:10:48;100443.70;;;-6.85;82.68
74181;BME280;62544;50.826;14.354;2023-03-01T02:15:03;100440.97;;;-6.89;82.94
74181;BME280;62544;50.826;14.354;2023-03-01T02:19:36;100439.74;;;-6.92;83.06
74181;BME280;62544;50.826;14.354;2023-03-01T02:23:35;100437.57;;;-6.94;82.68
74181;BME280;62544;50.826;14.354;2023-03-01T02:27:57;100434.06;;;-6.96;85.19
74181;BME280;62544;50.826;14.354;2023-03-01T02:32:07;100430.61;;;-6.96;84.86
74181;BME280;62544;50.826;14.354;2023-03-01T02:36:24;100428.53;;;-6.95;83.69
74181;BME280;62544;50.826;14.354;2023-03-01T02:40:39;100426.44;;;-6.98;83.98
74181;BME280;62544;50.826;14.354;2023-03-01T02:44:55;100423.94;;;-7.00;83.23
74181;BME280;62544;50.826;14.354;2023-03-01T02:49:29;100420.53;;;-7.04;83.43
74181;BME280;62544;50.826;14.354;2023-03-01T02:57:43;100414.64;;;-7.09;82.92
74181;BME280;62544;50.826;14.354;2023-03-01T03:02:00;100411.19;;;-7.12;84.05
74181;BME280;62544;50.826;14.354;2023-03-01T03:06:15;100410.67;;;-7.15;83.29
74181;BME280;62544;50.826;14.354;2023-03-01T03:10:32;100409.95;;;-7.18;82.54
74181;BME280;62544;50.826;14.354;2023-03-01T03:14:47;100408.53;;;-7.21;82.02
74181;BME280;62544;50.826;14.354;2023-03-01T03:19:03;100408.74;;;-7.25;82.11
74181;BME280;62544;50.826;14.354;2023-03-01T03:23:19;100407.05;;;-7.30;82.13
74181;BME280;62544;50.826;14.354;2023-03-01T03:27:35;100405.74;;;-7.34;82.12
74181;BME280;62544;50.826;14.354;2023-03-01T03:31:51;100404.72;;;-7.39;82.91
74181;BME280;62544;50.826;14.354;2023-03-01T03:36:07;100402.94;;;-7.41;83.74
74181;BME280;62544;50.826;14.354;2023-03-01T03:40:23;100400.56;;;-7.43;83.48
74181;BME280;62544;50.826;14.354;2023-03-01T03:44:39;100399.14;;;-7.43;82.20
74181;BME280;62544;50.826;14.354;2023-03-01T03:48:55;100398.80;;;-7.47;82.45
74181;BME280;62544;50.826;14.354;2023-03-01T03:53:11;100398.14;;;-7.52;83.80
74181;BME280;62544;50.826;14.354;2023-03-01T03:57:27;100398.80;;;-7.54;82.52
74181;BME280;62544;50.826;14.354;2023-03-01T04:01:42;100401.53;;;-7.56;81.66
74181;BME280;62544;50.826;14.354;2023-03-01T04:05:59;100402.31;;;-7.60;83.27
74181;BME280;62544;50.826;14.354;2023-03-01T04:10:15;100402.37;;;-7.63;82.77
74181;BME280;62544;50.826;14.354;2023-03-01T04:14:30;100403.34;;;-7.68;82.82
74181;BME280;62544;50.826;14.354;2023-03-01T04:18:47;100404.02;;;-7.71;82.39
74181;BME280;62544;50.826;14.354;2023-03-01T04:27:18;100402.62;;;-7.77;84.58
74181;BME280;62544;50.826;14.354;2023-03-01T04:31:35;100401.01;;;-7.78;84.27
74181;BME280;62544;50.826;14.354;2023-03-01T04:35:51;100401.15;;;-7.76;84.18
74181;BME280;62544;50.826;14.354;2023-03-01T04:40:07;100400.48;;;-7.75;82.51
74181;BME280;62544;50.826;14.354;2023-03-01T04:44:23;100399.00;;;-7.77;82.08
74181;BME280;62544;50.826;14.354;2023-03-01T04:48:39;100397.96;;;-7.85;85.10
74181;BME280;62544;50.826;14.354;2023-03-01T04:52:54;100400.95;;;-7.98;88.17
74181;BME280;62544;50.826;14.354;2023-03-01T04:57:11;100402.95;;;-7.97;85.45
74181;BME280;62544;50.826;14.354;2023-03-01T05:01:27;100401.90;;;-7.92;83.59
74181;BME280;62544;50.826;14.354;2023-03-01T05:05:43;100400.00;;;-7.88;84.80
74181;BME280;62544;50.826;14.354;2023-03-01T05:09:59;100398.61;;;-7.87;83.99
74181;BME280;62544;50.826;14.354;2023-03-01T05:14:14;100397.20;;;-7.86;82.47
74181;BME280;62544;50.826;14.354;2023-03-01T05:18:31;100397.11;;;-7.86;82.26
74181;BME280;62544;50.826;14.354;2023-03-01T05:22:46;100396.97;;;-7.88;81.76
74181;BME280;62544;50.826;14.354;2023-03-01T05:27:02;100394.67;;;-7.92;81.60
74181;BME280;62544;50.826;14.354;2023-03-01T05:31:18;100391.69;;;-7.97;81.43
74181;BME280;62544;50.826;14.354;2023-03-01T05:35:34;100390.20;;;-8.02;81.24
74181;BME280;62544;50.826;14.354;2023-03-01T05:39:50;100388.06;;;-8.07;81.30
74181;BME280;62544;50.826;14.354;2023-03-01T05:44:06;100389.20;;;-8.13;81.22
74181;BME280;62544;50.826;14.354;2023-03-01T05:48:22;100388.87;;;-8.17;82.33
74181;BME280;62544;50.826;14.354;2023-03-01T05:52:38;100388.95;;;-8.20;82.20
74181;BME280;62544;50.826;14.354;2023-03-01T05:56:54;100389.37;;;-8.23;82.62
74181;BME280;62544;50.826;14.354;2023-03-01T06:01:11;100389.04;;;-8.23;82.78
74181;BME280;62544;50.826;14.354;2023-03-01T06:05:27;100389.63;;;-8.20;82.28
74181;BME280;62544;50.826;14.354;2023-03-01T06:09:42;100389.47;;;-8.15;81.87
74181;BME280;62544;50.826;14.354;2023-03-01T06:13:58;100390.12;;;-8.11;82.11
74181;BME280;62544;50.826;14.354;2023-03-01T06:18:14;100390.01;;;-8.05;82.03
74181;BME280;62544;50.826;14.354;2023-03-01T06:22:30;100389.76;;;-7.98;82.44
74181;BME280;62544;50.826;14.354;2023-03-01T06:26:46;100388.70;;;-7.91;82.30
74181;BME280;62544;50.826;14.354;2023-03-01T06:31:03;100388.89;;;-7.89;83.67
74181;BME280;62544;50.826;14.354;2023-03-01T06:35:18;100391.06;;;-7.84;84.24
74181;BME280;62544;50.826;14.354;2023-03-01T06:39:35;100392.86;;;-7.72;83.21
74181;BME280;62544;50.826;14.354;2023-03-01T06:43:50;100394.35;;;-7.62;82.95
74181;BME280;62544;50.826;14.354;2023-03-01T06:48:07;100396.41;;;-7.51;82.78
74181;BME280;62544;50.826;14.354;2023-03-01T06:52:22;100399.25;;;-7.38;82.60
74181;BME280;62544;50.826;14.354;2023-03-01T06:56:38;100400.86;;;-7.25;82.26
74181;BME280;62544;50.826;14.354;2023-03-01T07:00:54;100403.20;;;-7.11;82.66
74181;BME280;62544;50.826;14.354;2023-03-01T07:05:10;100404.55;;;-6.97;82.33
74181;BME280;62544;50.826;14.354;2023-03-01T07:09:26;100405.21;;;-6.81;82.48
74181;BME280;62544;50.826;14.354;2023-03-01T07:13:42;100404.11;;;-6.65;82.43
74181;BME280;62544;50.826;14.354;2023-03-01T07:17:58;100403.99;;;-6.44;83.03
74181;BME280;62544;50.826;14.354;2023-03-01T07:22:14;100402.47;;;-6.13;86.19
74181;BME280;62544;50.826;14.354;2023-03-01T07:26:30;100400.09;;;-5.75;89.78
74181;BME280;62544;50.826;14.354;2023-03-01T07:30:46;100398.29;;;-5.33;89.01
74181;BME280;62544;50.826;14.354;2023-03-01T07:35:02;100396.81;;;-4.88;88.38
74181;BME280;62544;50.826;14.354;2023-03-01T07:39:18;100393.94;;;-4.42;87.15
74181;BME280;62544;50.826;14.354;2023-03-01T07:43:34;100390.45;;;-3.95;84.58
74181;BME280;62544;50.826;14.354;2023-03-01T07:47:54;100386.95;;;-3.48;85.23
74181;BME280;62544;50.826;14.354;2023-03-01T07:52:06;100383.42;;;-3.03;82.04
74181;BME280;62544;50.826;14.354;2023-03-01T07:56:22;100379.67;;;-2.61;80.97
74181;BME280;62544;50.826;14.354;2023-03-01T08:00:38;100373.99;;;-2.20;79.55
74181;BME280;62544;50.826;14.354;2023-03-01T08:04:54;100368.95;;;-1.77;77.89
74181;BME280;62544;50.826;14.354;2023-03-01T08:09:10;100365.67;;;-1.36;76.29
74181;BME280;62544;50.826;14.354;2023-03-01T08:13:26;100362.62;;;-0.99;75.66
74181;BME280;62544;50.826;14.354;2023-03-01T08:17:42;100359.17;;;-0.69;73.21
74181;BME280;62544;50.826;14.354;2023-03-01T08:21:58;100353.36;;;-0.44;72.53
74181;BME280;62544;50.826;14.354;2023-03-01T08:26:15;100346.73;;;-0.20;73.32
74181;BME280;62544;50.826;14.354;2023-03-01T08:30:30;100339.14;;;0.06;72.85
74181;BME280;62544;50.826;14.354;2023-03-01T08:34:46;100332.83;;;0.36;72.67
74181;BME280;62544;50.826;14.354;2023-03-01T08:39:03;100327.64;;;0.65;71.19
74181;BME280;62544;50.826;14.354;2023-03-01T08:43:18;100325.09;;;0.95;70.60
74181;BME280;62544;50.826;14.354;2023-03-01T08:47:34;100323.92;;;1.22;68.78
74181;BME280;62544;50.826;14.354;2023-03-01T08:51:50;100321.18;;;1.51;68.11
74181;BME280;62544;50.826;14.354;2023-03-01T08:56:07;100318.62;;;1.80;67.28
74181;BME280;62544;50.826;14.354;2023-03-01T09:00:22;100315.73;;;2.11;66.08
74181;BME280;62544;50.826;14.354;2023-03-01T09:04:38;100312.85;;;2.41;65.11
74181;BME280;62544;50.826;14.354;2023-03-01T09:08:54;100308.28;;;2.70;63.41
74181;BME280;62544;50.826;14.354;2023-03-01T09:13:10;100303.16;;;2.97;61.20
74181;BME280;62544;50.826;14.354;2023-03-01T09:17:26;100297.96;;;3.22;61.36
74181;BME280;62544;50.826;14.354;2023-03-01T09:21:42;100292.77;;;3.48;59.57
74181;BME280;62544;50.826;14.354;2023-03-01T09:25:58;100287.60;;;3.75;58.48
74181;BME280;62544;50.826;14.354;2023-03-01T09:30:14;100282.36;;;4.04;57.62
74181;BME280;62544;50.826;14.354;2023-03-01T09:34:30;100278.39;;;4.34;55.29
74181;BME280;62544;50.826;14.354;2023-03-01T09:38:47;100273.32;;;4.59;53.76
74181;BME280;62544;50.826;14.354;2023-03-01T09:43:06;100267.85;;;4.81;54.20
74181;BME280;62544;50.826;14.354;2023-03-01T09:47:22;100263.75;;;5.04;53.01
74181;BME280;62544;50.826;14.354;2023-03-01T09:51:35;100259.58;;;5.29;52.52
74181;BME280;62544;50.826;14.354;2023-03-01T09:55:52;100256.66;;;5.56;52.18
74181;BME280;62544;50.826;14.354;2023-03-01T10:08:57;100250.69;;;6.37;47.77
74181;BME280;62544;50.826;14.354;2023-03-01T10:12:54;100248.85;;;6.61;45.09
74181;BME280;62544;50.826;14.354;2023-03-01T10:17:19;100246.28;;;6.81;45.25
74181;BME280;62544;50.826;14.354;2023-03-01T10:21:26;100242.80;;;7.00;47.22
74181;BME280;62544;50.826;14.354;2023-03-01T10:25:44;100238.31;;;7.23;45.77
74181;BME280;62544;50.826;14.354;2023-03-01T10:30:16;100235.24;;;7.47;43.69
74181;BME280;62544;50.826;14.354;2023-03-01T10:34:18;100230.63;;;7.72;42.14
74181;BME280;62544;50.826;14.354;2023-03-01T10:38:31;100227.76;;;7.79;41.58
74181;BME280;62544;50.826;14.354;2023-03-01T10:42:47;100224.30;;;7.85;43.29
74181;BME280;62544;50.826;14.354;2023-03-01T10:47:02;100220.47;;;7.83;44.09
74181;BME280;62544;50.826;14.354;2023-03-01T10:51:18;100216.37;;;7.69;46.25
74181;BME280;62544;50.826;14.354;2023-03-01T10:55:35;100210.86;;;7.52;45.75
74181;BME280;62544;50.826;14.354;2023-03-01T10:59:51;100204.60;;;7.40;45.79
74181;BME280;62544;50.826;14.354;2023-03-01T11:04:11;100199.39;;;7.26;45.35
74181;BME280;62544;50.826;14.354;2023-03-01T11:08:41;100194.64;;;7.29;45.05
74181;BME280;62544;50.826;14.354;2023-03-01T11:12:38;100189.94;;;7.53;42.16
74181;BME280;62544;50.826;14.354;2023-03-01T11:17:01;100184.31;;;7.75;42.18
74181;BME280;62544;50.826;14.354;2023-03-01T11:21:10;100178.67;;;8.08;42.41
74181;BME280;62544;50.826;14.354;2023-03-01T11:25:27;100173.44;;;8.51;41.15
74181;BME280;62544;50.826;14.354;2023-03-01T11:29:50;100166.85;;;8.90;40.63
74181;BME280;62544;50.826;14.354;2023-03-01T11:38:24;100157.15;;;9.25;41.37
74181;BME280;62544;50.826;14.354;2023-03-01T11:51:02;100146.08;;;9.84;41.16
74181;BME280;62544;50.826;14.354;2023-03-01T12:04:10;100140.80;;;9.30;46.66
74181;BME280;62544;50.826;14.354;2023-03-01T12:12:33;100138.62;;;8.79;45.46
74181;BME280;62544;50.826;14.354;2023-03-01T12:25:18;100129.71;;;8.34;45.16
74181;BME280;62544;50.826;14.354;2023-03-01T12:29:41;100125.62;;;8.33;44.20
74181;BME280;62544;50.826;14.354;2023-03-01T12:33:58;100122.24;;;8.37;44.31
74181;BME280;62544;50.826;14.354;2023-03-01T12:38:06;100119.02;;;8.15;46.33
74181;BME280;62544;50.826;14.354;2023-03-01T12:52:53;100084.65;;;8.30;42.03
74181;BME280;62544;50.826;14.354;2023-03-01T12:57:26;100086.91;;;8.52;42.38
74181;BME280;62544;50.826;14.354;2023-03-01T13:01:33;100088.89;;;8.54;43.51
74181;BME280;62544;50.826;14.354;2023-03-01T13:06:07;100087.97;;;8.55;42.90
74181;BME280;62544;50.826;14.354;2023-03-01T13:14:45;100082.37;;;9.19;37.83
74181;BME280;62544;50.826;14.354;2023-03-01T13:19:08;100080.74;;;9.17;41.98
74181;BME280;62544;50.826;14.354;2023-03-01T13:23:32;100079.04;;;9.02;41.82
74181;BME280;62544;50.826;14.354;2023-03-01T13:28:32;100077.45;;;9.11;39.41
74181;BME280;62544;50.826;14.354;2023-03-01T13:32:23;100075.34;;;9.32;39.58
74181;BME280;62544;50.826;14.354;2023-03-01T13:36:46;100074.73;;;9.22;38.84
74181;BME280;62544;50.826;14.354;2023-03-01T13:41:07;100073.66;;;9.42;35.64
74181;BME280;62544;50.826;14.354;2023-03-01T13:45:40;100071.39;;;9.95;32.77
74181;BME280;62544;50.826;14.354;2023-03-01T13:50:01;100068.24;;;9.84;34.58
74181;BME280;62544;50.826;14.354;2023-03-01T13:58:56;100062.14;;;9.79;34.03
74181;BME280;62544;50.826;14.354;2023-03-01T14:03:17;100059.59;;;9.61;35.37
74181;BME280;62544;50.826;14.354;2023-03-01T14:07:30;100058.08;;;9.90;31.79
74181;BME280;62544;50.826;14.354;2023-03-01T14:16:34;100051.73;;;9.82;36.01
74181;BME280;62544;50.826;14.354;2023-03-01T14:20:43;100047.38;;;9.89;34.04
74181;BME280;62544;50.826;14.354;2023-03-01T14:29:34;100040.62;;;10.59;32.30
74181;BME280;62544;50.826;14.354;2023-03-01T14:33:55;100036.88;;;10.86;31.79
74181;BME280;62544;50.826;14.354;2023-03-01T14:38:22;100033.18;;;10.75;35.17
74181;BME280;62544;50.826;14.354;2023-03-01T14:42:42;100031.80;;;10.13;39.22
74181;BME280;62544;50.826;14.354;2023-03-01T14:47:10;100031.31;;;9.83;37.18
74181;BME280;62544;50.826;14.354;2023-03-01T14:51:34;100029.77;;;10.19;34.28
74181;BME280;62544;50.826;14.354;2023-03-01T14:55:55;100025.61;;;10.38;35.33
74181;BME280;62544;50.826;14.354;2023-03-01T15:00:20;100022.41;;;10.50;35.38
74181;BME280;62544;50.826;14.354;2023-03-01T15:04:49;100020.26;;;10.50;37.02
74181;BME280;62544;50.826;14.354;2023-03-01T15:09:06;100017.39;;;10.38;38.40
74181;BME280;62544;50.826;14.354;2023-03-01T15:13:34;100015.94;;;9.74;42.84
74181;BME280;62544;50.826;14.354;2023-03-01T15:17:56;100016.56;;;9.06;44.11
74181;BME280;62544;50.826;14.354;2023-03-01T15:22:18;100015.77;;;8.39;44.90
74181;BME280;62544;50.826;14.354;2023-03-01T15:26:43;100015.18;;;7.91;44.97
74181;BME280;62544;50.826;14.354;2023-03-01T15:31:17;100013.40;;;7.51;45.53
74181;BME280;62544;50.826;14.354;2023-03-01T15:35:40;100012.36;;;7.15;47.61
74181;BME280;62544;50.826;14.354;2023-03-01T15:39:55;100011.53;;;6.87;47.15
74181;BME280;62544;50.826;14.354;2023-03-01T15:44:25;100010.24;;;6.60;47.61
74181;BME280;62544;50.826;14.354;2023-03-01T15:48:46;100009.97;;;6.39;48.75
74181;BME280;62544;50.826;14.354;2023-03-01T15:53:13;100008.76;;;6.16;48.32
74181;BME280;62544;50.826;14.354;2023-03-01T15:57:30;100009.35;;;6.07;49.94
74181;BME280;62544;50.826;14.354;2023-03-01T16:01:54;100009.55;;;6.00;47.14
74181;BME280;62544;50.826;14.354;2023-03-01T16:06:18;100009.95;;;5.92;50.08
74181;BME280;62544;50.826;14.354;2023-03-01T16:10:42;100011.43;;;5.79;49.09
74181;BME280;62544;50.826;14.354;2023-03-01T16:15:20;100012.83;;;5.70;51.67
74181;BME280;62544;50.826;14.354;2023-03-01T16:19:30;100013.83;;;5.64;53.04
74181;BME280;62544;50.826;14.354;2023-03-01T16:23:55;100013.97;;;5.49;54.69
74181;BME280;62544;50.826;14.354;2023-03-01T16:28:18;100015.34;;;5.31;56.80
74181;BME280;62544;50.826;14.354;2023-03-01T16:32:43;100016.74;;;5.06;58.24
74181;BME280;62544;50.826;14.354;2023-03-01T16:37:06;100019.33;;;4.81;58.64
74181;BME280;62544;50.826;14.354;2023-03-01T16:41:30;100020.46;;;4.54;59.28
74181;BME280;62544;50.826;14.354;2023-03-01T16:45:55;100023.51;;;4.25;61.21
74181;BME280;62544;50.826;14.354;2023-03-01T16:50:19;100026.06;;;3.96;61.76
74181;BME280;62544;50.826;14.354;2023-03-01T16:54:43;100029.40;;;3.65;62.14
74181;BME280;62544;50.826;14.354;2023-03-01T16:59:06;100033.11;;;3.33;63.16
74181;BME280;62544;50.826;14.354;2023-03-01T17:03:30;100037.70;;;2.98;64.82
74181;BME280;62544;50.826;14.354;2023-03-01T17:07:54;100041.72;;;2.66;65.34
74181;BME280;62544;50.826;14.354;2023-03-01T17:12:18;100046.61;;;2.34;66.38
74181;BME280;62544;50.826;14.354;2023-03-01T17:16:43;100052.23;;;2.05;67.23
74181;BME280;62544;50.826;14.354;2023-03-01T17:21:07;100057.37;;;1.76;68.79
74181;BME280;62544;50.826;14.354;2023-03-01T17:25:30;100062.27;;;1.50;70.95
74181;BME280;62544;50.826;14.354;2023-03-01T17:29:55;100065.51;;;1.26;70.83
74181;BME280;62544;50.826;14.354;2023-03-01T17:34:18;100066.24;;;1.03;72.26
74181;BME280;62544;50.826;14.354;2023-03-01T17:38:42;100064.61;;;0.83;72.40
74181;BME280;62544;50.826;14.354;2023-03-01T17:43:07;100062.78;;;0.64;73.03
74181;BME280;62544;50.826;14.354;2023-03-01T17:47:30;100062.23;;;0.49;73.87
74181;BME280;62544;50.826;14.354;2023-03-01T17:51:54;100060.03;;;0.33;74.70
74181;BME280;62544;50.826;14.354;2023-03-01T17:56:19;100059.02;;;0.19;74.07
74181;BME280;62544;50.826;14.354;2023-03-01T18:00:42;100059.72;;;0.05;74.03
74181;BME280;62544;50.826;14.354;2023-03-01T18:05:07;100061.41;;;-0.09;74.83
74181;BME280;62544;50.826;14.354;2023-03-01T18:09:30;100065.17;;;-0.24;76.40
74181;BME280;62544;50.826;14.354;2023-03-01T18:13:55;100067.25;;;-0.37;75.94
74181;BME280;62544;50.826;14.354;2023-03-01T18:18:18;100067.89;;;-0.50;76.17
74181;BME280;62544;50.826;14.354;2023-03-01T18:22:42;100068.26;;;-0.63;76.53
74181;BME280;62544;50.826;14.354;2023-03-01T18:27:07;100068.25;;;-0.77;77.76
74181;BME280;62544;50.826;14.354;2023-03-01T18:31:30;100068.44;;;-0.89;78.95
74181;BME280;62544;50.826;14.354;2023-03-01T18:35:55;100069.42;;;-0.95;78.73
74181;BME280;62544;50.826;14.354;2023-03-01T18:40:18;100069.49;;;-1.02;77.60
74181;BME280;62544;50.826;14.354;2023-03-01T18:44:43;100069.96;;;-1.11;77.60
74181;BME280;62544;50.826;14.354;2023-03-01T18:49:06;100068.28;;;-1.26;80.58
74181;BME280;62544;50.826;14.354;2023-03-01T18:53:30;100066.58;;;-1.37;81.12
74181;BME280;62544;50.826;14.354;2023-03-01T18:57:54;100066.16;;;-1.42;81.82
74181;BME280;62544;50.826;14.354;2023-03-01T19:02:18;100065.91;;;-1.44;81.79
74181;BME280;62544;50.826;14.354;2023-03-01T19:06:42;100066.27;;;-1.48;81.50
74181;BME280;62544;50.826;14.354;2023-03-01T19:11:07;100065.88;;;-1.54;81.78
74181;BME280;62544;50.826;14.354;2023-03-01T19:15:31;100064.20;;;-1.55;81.21
74181;BME280;62544;50.826;14.354;2023-03-01T19:19:58;100063.12;;;-1.58;81.17
74181;BME280;62544;50.826;14.354;2023-03-01T19:24:19;100061.52;;;-1.61;81.75
74181;BME280;62544;50.826;14.354;2023-03-01T19:28:43;100058.21;;;-1.63;80.54
74181;BME280;62544;50.826;14.354;2023-03-01T19:33:07;100054.69;;;-1.68;80.80
74181;BME280;62544;50.826;14.354;2023-03-01T19:37:32;100051.32;;;-1.72;80.04
74181;BME280;62544;50.826;14.354;2023-03-01T19:41:55;100050.00;;;-1.77;82.05
74181;BME280;62544;50.826;14.354;2023-03-01T19:46:19;100050.55;;;-1.82;81.37
74181;BME280;62544;50.826;14.354;2023-03-01T19:50:43;100049.28;;;-1.87;80.48
74181;BME280;62544;50.826;14.354;2023-03-01T19:55:07;100049.08;;;-1.94;80.73
74181;BME280;62544;50.826;14.354;2023-03-01T19:59:31;100047.33;;;-2.01;80.92
74181;BME280;62544;50.826;14.354;2023-03-01T20:03:55;100045.83;;;-2.08;81.57
74181;BME280;62544;50.826;14.354;2023-03-01T20:08:19;100045.56;;;-2.13;80.81
74181;BME280;62544;50.826;14.354;2023-03-01T20:12:43;100046.24;;;-2.19;82.49
74181;BME280;62544;50.826;14.354;2023-03-01T20:17:07;100045.89;;;-2.23;81.18
74181;BME280;62544;50.826;14.354;2023-03-01T20:21:31;100046.73;;;-2.30;81.24
74181;BME280;62544;50.826;14.354;2023-03-01T20:26:02;100047.14;;;-2.37;82.11
74181;BME280;62544;50.826;14.354;2023-03-01T20:30:19;100046.87;;;-2.43;82.06
74181;BME280;62544;50.826;14.354;2023-03-01T20:34:43;100046.22;;;-2.51;84.03
74181;BME280;62544;50.826;14.354;2023-03-01T20:39:07;100045.51;;;-2.55;83.32
74181;BME280;62544;50.826;14.354;2023-03-01T20:43:31;100044.20;;;-2.57;83.54
74181;BME280;62544;50.826;14.354;2023-03-01T20:47:55;100042.46;;;-2.57;83.59
74181;BME280;62544;50.826;14.354;2023-03-01T20:52:19;100041.11;;;-2.57;83.27
74181;BME280;62544;50.826;14.354;2023-03-01T20:56:43;100038.05;;;-2.58;83.00
74181;BME280;62544;50.826;14.354;2023-03-01T21:01:07;100034.97;;;-2.62;83.44
74181;BME280;62544;50.826;14.354;2023-03-01T21:05:31;100031.54;;;-2.64;85.18
74181;BME280;62544;50.826;14.354;2023-03-01T21:09:55;100027.97;;;-2.65;83.33
74181;BME280;62544;50.826;14.354;2023-03-01T21:14:19;100026.40;;;-2.68;85.42
74181;BME280;62544;50.826;14.354;2023-03-01T21:18:43;100027.09;;;-2.71;84.53
74181;BME280;62544;50.826;14.354;2023-03-01T21:23:07;100028.70;;;-2.75;84.41
74181;BME280;62544;50.826;14.354;2023-03-01T21:27:34;100031.15;;;-2.83;84.43
74181;BME280;62544;50.826;14.354;2023-03-01T21:31:55;100033.04;;;-2.90;84.39
74181;BME280;62544;50.826;14.354;2023-03-01T21:36:19;100034.44;;;-2.94;84.14
74181;BME280;62544;50.826;14.354;2023-03-01T21:40:43;100034.39;;;-2.98;83.50
74181;BME280;62544;50.826;14.354;2023-03-01T21:45:07;100033.29;;;-3.03;85.61
74181;BME280;62544;50.826;14.354;2023-03-01T21:49:31;100030.50;;;-3.07;83.94
74181;BME280;62544;50.826;14.354;2023-03-01T21:53:55;100028.96;;;-3.13;84.07
74181;BME280;62544;50.826;14.354;2023-03-01T21:58:19;100027.15;;;-3.17;83.59
74181;BME280;62544;50.826;14.354;2023-03-01T22:02:43;100027.19;;;-3.22;83.98
74181;BME280;62544;50.826;14.354;2023-03-01T22:07:07;100026.15;;;-3.27;84.14
74181;BME280;62544;50.826;14.354;2023-03-01T22:11:31;100026.58;;;-3.30;83.42
74181;BME280;62544;50.826;14.354;2023-03-01T22:15:55;100026.90;;;-3.32;83.50
74181;BME280;62544;50.826;14.354;2023-03-01T22:20:19;100025.25;;;-3.34;82.91
74181;BME280;62544;50.826;14.354;2023-03-01T22:24:43;100024.00;;;-3.37;83.72
74181;BME280;62544;50.826;14.354;2023-03-01T22:29:11;100023.33;;;-3.39;85.36
74181;BME280;62544;50.826;14.354;2023-03-01T22:33:31;100021.19;;;-3.40;83.20
74181;BME280;62544;50.826;14.354;2023-03-01T22:37:55;100019.69;;;-3.43;83.14
74181;BME280;62544;50.826;14.354;2023-03-01T22:42:19;100019.16;;;-3.53;85.29
74181;BME280;62544;50.826;14.354;2023-03-01T22:46:43;100019.30;;;-3.57;83.53
74181;BME280;62544;50.826;14.354;2023-03-01T22:51:07;100019.17;;;-3.60;83.61
74181;BME280;62544;50.826;14.354;2023-03-01T22:55:31;100019.58;;;-3.61;82.81
74181;BME280;62544;50.826;14.354;2023-03-01T22:59:55;100020.03;;;-3.64;82.44
74181;BME280;62544;50.826;14.354;2023-03-01T23:04:19;100019.33;;;-3.69;84.72
74181;BME280;62544;50.826;14.354;2023-03-01T23:08:43;100018.89;;;-3.69;84.72
74181;BME280;62544;50.826;14.354;2023-03-01T23:13:07;100019.76;;;-3.71;84.59
74181;BME280;62544;50.826;14.354;2023-03-01T23:17:31;100020.14;;;-3.74;84.80
74181;BME280;62544;50.826;14.354;2023-03-01T23:21:55;100019.27;;;-3.75;83.39
74181;BME280;62544;50.826;14.354;2023-03-01T23:26:19;100018.28;;;-3.79;82.71
74181;BME280;62544;50.826;14.354;2023-03-01T23:30:51;100018.66;;;-3.85;82.72
74181;BME280;62544;50.826;14.354;2023-03-01T23:35:07;100018.95;;;-3.95;84.43
74181;BME280;62544;50.826;14.354;2023-03-01T23:39:31;100017.55;;;-4.02;83.45
74181;BME280;62544;50.826;14.354;2023-03-01T23:43:55;100017.05;;;-4.09;83.77
74181;BME280;62544;50.826;14.354;2023-03-01T23:48:19;100017.55;;;-4.15;83.38